KGTF/GTF METAR and TAF weather

Enter ICAO airport designator
Station Type Date Time Source
KGTF METAR 2019/02/20 16:53 UTC NOAA

KGTF 201653Z 28011KT 10SM BKN020 M09/M11 A2961 RMK AO2 SNE30 SLP101 P0000 T10891106


Station Type Date Time Source
KGTF Decoded METAR 2019/02/20 16:53 UTC NOAA

GREAT FALLS INTERNATIONAL, MT, United States (KGTF) 47-28N 111-23W 1119M
Feb 20, 2019 - 11:53 AM EST / 2019.02.20 1653 UTC
Wind: from the W (280 degrees) at 13 MPH (11 KT):0
Visibility: 10 mile(s):0
Sky conditions: mostly cloudy
Precipitation last hour: A trace
Temperature: 16.0 F (-8.9 C)
Windchill: 1 F (-17 C):1
Dew Point: 12.9 F (-10.6 C)
Relative Humidity: 87%
Pressure (altimeter): 29.61 in. Hg (1002 hPa)
ob: KGTF 201653Z 28011KT 10SM BKN020 M09/M11 A2961 RMK AO2 SNE30 SLP101 P0000 T10891106
cycle: 17

Station Type Date Time Source
KGTF TAF 2019/02/20 15:51 UTC NOAA

TAF
AMD KGTF 201448Z 2015/2112 22007KT P6SM VCSH SCT030 BKN050
TEMPO 2015/2016 1SM -SN BR BKN020 OVC035
FM202000 33005KT 6SM -SHSN BR SCT020 BKN030
TEMPO 2021/2024 3SM -SN BR BKN025
FM210000 35008KT 2SM -SN BR SCT010 BKN020


Example: see airport list